createdAt,value
2022-09-04T00:01:45.038Z,72.11
2022-09-04T00:04:26.181Z,71.98
2022-09-04T00:07:09.494Z,72.12
2022-09-04T00:09:52.927Z,71.95
2022-09-04T00:12:31.320Z,72.04
2022-09-04T00:15:12.232Z,71.93
2022-09-04T00:17:52.560Z,72.09
2022-09-04T00:20:35.856Z,71.95
2022-09-04T00:23:14.784Z,71.81
2022-09-04T00:25:57.403Z,71.79
2022-09-04T00:28:36.379Z,71.85
2022-09-04T00:31:19.760Z,71.76
2022-09-04T00:34:07.408Z,71.67
2022-09-04T00:36:48.169Z,71.47
2022-09-04T00:39:38.100Z,71.51
2022-09-04T00:42:26.782Z,71.52
2022-09-04T00:45:14.659Z,71.50
2022-09-04T00:48:11.143Z,71.59
2022-09-04T00:51:08.186Z,71.50
2022-09-04T00:53:52.596Z,71.65
2022-09-04T00:56:52.671Z,71.73
2022-09-04T00:59:39.839Z,71.65
2022-09-04T01:02:19.235Z,71.62
2022-09-04T01:05:08.281Z,71.84
2022-09-04T01:07:56.759Z,71.92
2022-09-04T01:10:36.526Z,71.82
2022-09-04T01:13:13.910Z,71.98
2022-09-04T01:15:52.763Z,72.28
2022-09-04T01:18:32.718Z,72.52
2022-09-04T01:21:23.593Z,72.36
2022-09-04T01:24:21.669Z,72.44
2022-09-04T01:27:00.948Z,72.55
2022-09-04T01:29:42.684Z,72.60
2022-09-04T01:32:25.569Z,72.62
2022-09-04T01:35:09.949Z,72.79
2022-09-04T01:37:52.755Z,72.58
2022-09-04T01:40:36.111Z,72.64
2022-09-04T01:43:12.497Z,72.56
2022-09-04T01:46:06.357Z,72.60
2022-09-04T01:48:47.274Z,72.81
2022-09-04T01:51:26.238Z,72.70
2022-09-04T01:54:18.906Z,72.94
2022-09-04T01:57:08.445Z,72.97
2022-09-04T01:59:53.091Z,72.85
2022-09-04T02:02:34.136Z,73.12
2022-09-04T02:05:15.805Z,73.15
2022-09-04T02:07:51.653Z,73.17
2022-09-04T02:10:36.694Z,73.37
2022-09-04T02:13:22.433Z,73.36
2022-09-04T02:16:04.378Z,73.60
2022-09-04T02:18:45.496Z,73.90
2022-09-04T02:21:27.140Z,74.21
2022-09-04T02:24:05.879Z,74.39
2022-09-04T02:26:43.824Z,74.64
2022-09-04T02:29:23.115Z,74.74
2022-09-04T02:32:01.248Z,74.72
2022-09-04T02:34:41.878Z,74.94
2022-09-04T02:37:24.214Z,74.93
2022-09-04T02:40:04.237Z,75.02
2022-09-04T02:42:50.435Z,75.09
2022-09-04T02:45:34.701Z,75.01
2022-09-04T02:48:14.360Z,75.08
2022-09-04T02:51:00.692Z,75.09
2022-09-04T02:53:39.842Z,75.14
2022-09-04T02:56:24.020Z,75.22
2022-09-04T02:59:11.583Z,75.25
2022-09-04T03:01:51.865Z,75.30
2022-09-04T03:04:31.744Z,75.30
2022-09-04T03:07:10.837Z,75.49
2022-09-04T03:09:48.512Z,75.50
2022-09-04T03:12:33.142Z,75.68
2022-09-04T03:15:15.305Z,75.79
2022-09-04T03:17:55.358Z,75.84
2022-09-04T03:20:29.655Z,75.96
2022-09-04T03:23:09.009Z,76.10
2022-09-04T03:25:55.330Z,76.14
2022-09-04T03:28:36.979Z,76.27
2022-09-04T03:31:14.547Z,76.41
2022-09-04T03:33:53.795Z,76.84
2022-09-04T03:36:37.147Z,76.82
2022-09-04T03:39:17.621Z,77.02
2022-09-04T03:41:58.921Z,77.34
2022-09-04T03:44:44.811Z,77.74
2022-09-04T03:47:25.437Z,77.68
2022-09-04T03:50:06.365Z,77.75
2022-09-04T03:52:50.532Z,77.74
2022-09-04T03:55:56.556Z,78.10
2022-09-04T03:58:38.176Z,78.25
2022-09-04T04:01:13.546Z,78.34
2022-09-04T04:04:00.154Z,78.41
2022-09-04T04:06:39.109Z,78.63
2022-09-04T04:09:31.555Z,78.53
2022-09-04T04:12:27.500Z,78.60
2022-09-04T04:15:13.576Z,78.80
2022-09-04T04:18:04.390Z,78.87
2022-09-04T04:20:45.606Z,78.79
2022-09-04T04:23:50.173Z,79.10
2022-09-04T04:26:30.740Z,79.49
2022-09-04T04:29:21.342Z,78.97
2022-09-04T04:32:13.754Z,78.88
2022-09-04T04:35:03.444Z,78.65
2022-09-04T04:37:44.511Z,78.38
2022-09-04T04:40:25.746Z,78.57
2022-09-04T04:43:06.408Z,78.73
2022-09-04T04:45:54.829Z,78.81
2022-09-04T04:48:56.965Z,78.83
2022-09-04T04:51:51.056Z,79.08
2022-09-04T04:54:39.155Z,79.16
2022-09-04T04:57:21.892Z,79.31
2022-09-04T05:00:06.511Z,79.36
2022-09-04T05:02:49.277Z,79.34
2022-09-04T05:05:29.634Z,79.54
2022-09-04T05:08:08.656Z,79.83
2022-09-04T05:10:46.435Z,79.78
2022-09-04T05:13:25.242Z,79.96
2022-09-04T05:16:09.513Z,80.07
2022-09-04T05:18:52.048Z,80.19
2022-09-04T05:21:30.098Z,80.21
2022-09-04T05:24:08.406Z,80.12
2022-09-04T05:26:50.378Z,80.13
2022-09-04T05:29:32.652Z,80.14
2022-09-04T05:32:19.045Z,80.16
2022-09-04T05:35:05.340Z,80.25
2022-09-04T05:37:43.997Z,80.21
2022-09-04T05:40:29.514Z,80.52
2022-09-04T05:43:17.920Z,80.43
2022-09-04T05:46:05.948Z,80.44
2022-09-04T05:48:47.546Z,80.34
2022-09-04T05:51:55.138Z,80.35
2022-09-04T05:54:58.626Z,80.43
2022-09-04T05:57:42.777Z,80.30
2022-09-04T06:00:17.448Z,81.83
2022-09-04T06:03:33.366Z,81.97
2022-09-04T06:06:18.068Z,77.64
2022-09-04T06:09:20.015Z,75.68
2022-09-04T06:12:08.548Z,74.85
2022-09-04T06:15:02.733Z,75.58
2022-09-04T06:17:50.764Z,75.54
2022-09-04T06:20:43.034Z,75.20
2022-09-04T06:23:30.919Z,74.67
2022-09-04T06:26:27.678Z,73.06
2022-09-04T06:29:16.005Z,71.82
2022-09-04T06:32:04.470Z,67.96
2022-09-04T06:34:58.973Z,68.05
2022-09-04T06:37:38.471Z,69.24
2022-09-04T06:40:38.983Z,70.22
2022-09-04T06:43:22.108Z,67.71
2022-09-04T06:46:07.216Z,66.98
2022-09-04T06:48:53.126Z,65.26
2022-09-04T06:51:39.655Z,64.08
2022-09-04T06:54:27.881Z,62.61
2022-09-04T06:57:19.081Z,60.07
2022-09-04T07:00:06.020Z,59.45
2022-09-04T07:03:13.701Z,58.55
2022-09-04T07:05:55.303Z,57.43
2022-09-04T07:08:44.110Z,58.00
2022-09-04T07:11:30.554Z,57.41
2022-09-04T07:14:31.563Z,56.41
2022-09-04T07:17:12.305Z,56.52
2022-09-04T07:20:04.484Z,55.99
2022-09-04T07:23:16.952Z,55.52
2022-09-04T07:26:00.665Z,56.09
2022-09-04T07:29:03.140Z,56.61
2022-09-04T07:31:43.019Z,57.35
2022-09-04T07:34:24.982Z,58.77
2022-09-04T07:37:01.538Z,59.66
2022-09-04T07:39:39.657Z,60.11
2022-09-04T07:42:17.078Z,60.93
2022-09-04T07:45:00.698Z,61.45
2022-09-04T07:47:38.602Z,61.96
2022-09-04T07:50:16.659Z,60.81
2022-09-04T07:53:08.300Z,61.15
2022-09-04T07:55:46.821Z,61.33
2022-09-04T07:58:45.663Z,62.36
2022-09-04T08:01:37.058Z,62.00
2022-09-04T08:04:51.121Z,61.50
2022-09-04T08:07:47.941Z,62.74
2022-09-04T08:10:31.588Z,61.98
2022-09-04T08:13:43.999Z,62.04
2022-09-04T08:16:23.987Z,62.44
2022-09-04T08:19:15.674Z,62.63
2022-09-04T08:21:50.948Z,61.79
2022-09-04T08:24:50.151Z,61.15
2022-09-04T08:27:40.493Z,61.50
2022-09-04T08:30:20.185Z,61.61
2022-09-04T08:33:18.738Z,62.15
2022-09-04T08:35:57.333Z,62.16
2022-09-04T08:38:46.123Z,62.48
2022-09-04T08:41:47.159Z,62.45
2022-09-04T08:44:53.563Z,61.99
2022-09-04T08:48:02.255Z,62.59
2022-09-04T08:50:57.978Z,62.18
2022-09-04T08:53:55.160Z,61.99
2022-09-04T08:56:36.304Z,62.35
2022-09-04T08:59:37.832Z,62.18
2022-09-04T09:02:42.511Z,61.96
2022-09-04T09:05:33.464Z,62.02
2022-09-04T09:08:38.836Z,62.10
2022-09-04T09:11:43.348Z,61.69
2022-09-04T09:14:48.415Z,61.32
2022-09-04T09:17:41.839Z,61.01
2022-09-04T09:20:28.841Z,61.28
2022-09-04T09:23:36.179Z,61.42
2022-09-04T09:26:31.106Z,61.23
2022-09-04T09:29:30.523Z,61.24
2022-09-04T09:32:37.069Z,61.02
2022-09-04T09:35:56.010Z,61.37
2022-09-04T09:38:58.865Z,61.59
2022-09-04T09:41:59.541Z,61.74
2022-09-04T09:45:00.324Z,61.60
2022-09-04T09:48:05.425Z,61.45
2022-09-04T09:51:03.274Z,61.11
2022-09-04T09:54:25.496Z,60.36
2022-09-04T09:57:33.535Z,59.86
2022-09-04T10:00:11.960Z,59.83
2022-09-04T10:03:12.113Z,59.85
2022-09-04T10:06:30.181Z,59.19
2022-09-04T10:09:34.611Z,60.05
2022-09-04T10:12:33.739Z,59.69
2022-09-04T10:15:48.882Z,59.52
2022-09-04T10:19:06.241Z,60.19
2022-09-04T10:22:11.766Z,58.92
2022-09-04T10:25:13.890Z,59.04
2022-09-04T10:28:12.488Z,58.83
2022-09-04T10:31:11.203Z,58.92
2022-09-04T10:34:00.890Z,58.65
2022-09-04T10:36:45.451Z,58.72
2022-09-04T10:39:45.718Z,58.41
2022-09-04T10:42:34.439Z,58.39
2022-09-04T10:45:22.179Z,58.09
2022-09-04T10:48:28.451Z,58.12
2022-09-04T10:51:15.702Z,58.20
2022-09-04T10:54:02.257Z,58.49
2022-09-04T10:56:51.265Z,58.56
2022-09-04T11:00:00.777Z,57.85
2022-09-04T11:03:08.047Z,58.16
2022-09-04T11:06:18.834Z,58.18
2022-09-04T11:09:16.141Z,57.62
2022-09-04T11:12:09.386Z,56.83
2022-09-04T11:14:59.653Z,57.38
2022-09-04T11:17:53.960Z,57.85
2022-09-04T11:21:09.297Z,57.83
2022-09-04T11:24:26.492Z,57.00
2022-09-04T11:27:47.753Z,56.81
2022-09-04T11:30:23.713Z,56.96
2022-09-04T11:33:33.189Z,56.35
2022-09-04T11:36:50.169Z,56.26
2022-09-04T11:39:47.066Z,56.38
2022-09-04T11:42:32.970Z,56.30
2022-09-04T11:45:41.399Z,55.94
2022-09-04T11:48:30.243Z,56.04
2022-09-04T11:51:20.086Z,55.81
2022-09-04T11:54:20.556Z,55.80
2022-09-04T11:57:08.159Z,55.05
2022-09-04T12:00:07.042Z,54.89
2022-09-04T12:03:10.399Z,55.02
2022-09-04T12:05:55.934Z,54.77
2022-09-04T12:09:00.866Z,54.43
2022-09-04T12:12:03.274Z,54.03
2022-09-04T12:14:49.637Z,53.98
2022-09-04T12:18:14.347Z,54.92
2022-09-04T12:21:23.312Z,55.22
2022-09-04T12:24:36.721Z,55.93
2022-09-04T12:27:35.023Z,54.88
2022-09-04T12:30:20.161Z,54.76
2022-09-04T12:33:24.563Z,54.56
2022-09-04T12:36:23.247Z,54.67
2022-09-04T12:39:25.645Z,53.91
2022-09-04T12:42:06.288Z,53.44
2022-09-04T12:44:51.376Z,53.36
2022-09-04T12:47:37.085Z,53.69
2022-09-04T12:50:28.354Z,53.32
2022-09-04T12:53:25.895Z,53.31
2022-09-04T12:56:06.059Z,52.69
2022-09-04T12:58:56.610Z,52.90
2022-09-04T13:01:39.568Z,53.11
2022-09-04T13:04:21.940Z,53.29
2022-09-04T13:07:16.006Z,53.27
2022-09-04T13:09:56.033Z,53.30
2022-09-04T13:12:38.599Z,53.38
2022-09-04T13:15:24.457Z,54.01
2022-09-04T13:18:08.292Z,53.53
2022-09-04T13:20:51.919Z,52.31
2022-09-04T13:23:37.437Z,51.71
2022-09-04T13:26:25.205Z,51.49
2022-09-04T13:29:16.919Z,50.35
2022-09-04T13:32:07.483Z,50.97
2022-09-04T13:34:58.621Z,51.43
2022-09-04T13:37:30.486Z,52.18
2022-09-04T13:40:18.104Z,52.12
2022-09-04T13:43:18.755Z,52.19
2022-09-04T13:45:55.523Z,51.92
2022-09-04T13:48:38.372Z,51.98
2022-09-04T13:51:14.867Z,52.07
2022-09-04T13:53:59.602Z,52.53
2022-09-04T13:56:36.509Z,52.65
2022-09-04T13:59:11.936Z,52.94
2022-09-04T14:01:47.969Z,52.82
2022-09-04T14:04:26.313Z,53.00
2022-09-04T14:07:07.089Z,52.87
2022-09-04T14:09:44.734Z,53.29
2022-09-04T14:12:33.005Z,53.75
2022-09-04T14:15:32.839Z,54.06
2022-09-04T14:18:17.767Z,54.70
2022-09-04T14:21:01.278Z,55.12
2022-09-04T14:23:47.219Z,55.19
2022-09-04T14:26:29.000Z,55.16
2022-09-04T14:29:08.572Z,55.58
2022-09-04T14:31:49.367Z,55.32
2022-09-04T14:34:36.195Z,55.18
2022-09-04T14:37:19.817Z,55.35
2022-09-04T14:39:58.794Z,55.63
2022-09-04T14:42:47.711Z,55.46
2022-09-04T14:45:35.364Z,55.86
2022-09-04T14:48:11.409Z,55.70
2022-09-04T14:50:49.574Z,55.89
2022-09-04T14:53:27.313Z,55.53
2022-09-04T14:56:32.270Z,55.77
2022-09-04T14:59:14.839Z,55.89
2022-09-04T15:02:19.073Z,55.88
2022-09-04T15:04:56.461Z,56.36
2022-09-04T15:08:03.808Z,56.16
2022-09-04T15:10:49.906Z,56.31
2022-09-04T15:13:54.246Z,56.61
2022-09-04T15:16:44.261Z,56.71
2022-09-04T15:19:31.937Z,56.86
2022-09-04T15:22:10.831Z,56.72
2022-09-04T15:24:58.448Z,57.13
2022-09-04T15:27:40.743Z,57.13
2022-09-04T15:30:21.832Z,57.24
2022-09-04T15:33:06.489Z,57.10
2022-09-04T15:35:39.589Z,57.50
2022-09-04T15:38:20.639Z,57.69
2022-09-04T15:41:17.738Z,58.49
2022-09-04T15:43:55.575Z,58.42
2022-09-04T15:46:44.269Z,59.10
2022-09-04T15:49:32.427Z,59.24
2022-09-04T15:52:20.010Z,59.77
2022-09-04T15:55:11.695Z,60.00
2022-09-04T15:57:58.515Z,59.46
2022-09-04T16:00:34.073Z,59.35
2022-09-04T16:03:16.610Z,59.38
2022-09-04T16:05:53.989Z,59.76
2022-09-04T16:08:33.437Z,60.79
2022-09-04T16:11:11.724Z,61.41
2022-09-04T16:13:58.077Z,61.55
2022-09-04T16:16:35.656Z,61.92
2022-09-04T16:19:15.953Z,61.71
2022-09-04T16:21:55.564Z,61.84
2022-09-04T16:24:35.604Z,62.00
2022-09-04T16:27:12.254Z,62.01
2022-09-04T16:29:51.116Z,62.05
2022-09-04T16:32:25.761Z,62.63
2022-09-04T16:35:03.189Z,62.58
2022-09-04T16:37:42.460Z,62.86
2022-09-04T16:40:28.369Z,63.05
2022-09-04T16:43:09.632Z,63.29
2022-09-04T16:45:49.589Z,63.37
2022-09-04T16:48:34.606Z,63.74
2022-09-04T16:51:39.238Z,63.86
2022-09-04T16:54:16.288Z,63.80
2022-09-04T16:56:50.772Z,63.87
2022-09-04T16:59:30.783Z,63.94
2022-09-04T17:02:06.546Z,64.11
2022-09-04T17:04:42.662Z,64.31
2022-09-04T17:07:20.209Z,64.39
2022-09-04T17:10:01.693Z,64.47
2022-09-04T17:12:47.363Z,64.43
2022-09-04T17:15:32.746Z,64.53
2022-09-04T17:18:09.600Z,64.47
2022-09-04T17:21:34.869Z,64.45
2022-09-04T17:28:58.184Z,64.65
2022-09-04T17:29:10.109Z,64.87
2022-09-04T17:29:44.577Z,64.67
2022-09-04T17:33:39.578Z,64.23
2022-09-04T17:40:42.889Z,64.40
2022-09-04T17:40:56.843Z,64.59
2022-09-04T17:41:36.462Z,64.76
2022-09-04T17:44:31.808Z,64.82
2022-09-04T17:47:19.282Z,65.22
2022-09-04T17:49:57.249Z,65.57
2022-09-04T17:52:32.176Z,65.89
2022-09-04T17:55:11.915Z,65.97
2022-09-04T17:58:00.420Z,66.26
2022-09-04T18:00:35.484Z,66.48
2022-09-04T18:03:29.772Z,66.73
2022-09-04T18:06:10.456Z,66.94
2022-09-04T18:08:55.650Z,67.18
2022-09-04T18:11:34.421Z,67.47
2022-09-04T18:14:13.570Z,67.75
2022-09-04T18:17:12.787Z,67.77
2022-09-04T18:19:47.699Z,67.72
2022-09-04T18:22:31.852Z,67.59
2022-09-04T18:25:17.221Z,67.63
2022-09-04T18:28:11.666Z,67.53
2022-09-04T18:37:05.870Z,67.39
2022-09-04T18:37:16.433Z,67.75
2022-09-04T18:37:24.419Z,67.63
2022-09-04T18:40:07.139Z,67.93
2022-09-04T18:50:17.468Z,67.90
2022-09-04T18:50:30.864Z,68.34
2022-09-04T18:50:32.525Z,68.16
2022-09-04T18:51:51.112Z,68.67
2022-09-04T18:54:28.292Z,68.61
2022-09-04T18:57:13.758Z,68.53
2022-09-04T18:59:55.743Z,68.57
2022-09-04T19:02:52.858Z,68.90
2022-09-04T19:05:44.821Z,68.98
2022-09-04T19:08:19.919Z,68.86
2022-09-04T19:10:56.506Z,69.09
2022-09-04T19:13:34.731Z,69.06
2022-09-04T19:16:12.347Z,68.94
2022-09-04T19:18:52.470Z,68.96
2022-09-04T19:21:32.357Z,68.97
2022-09-04T19:24:28.679Z,69.14
2022-09-04T19:27:26.502Z,69.11
2022-09-04T19:30:18.014Z,69.16
2022-09-04T19:33:00.054Z,69.15
2022-09-04T19:35:38.721Z,69.50
2022-09-04T19:42:02.957Z,69.53
2022-09-04T19:46:03.654Z,69.78
2022-09-04T19:46:16.323Z,69.68
2022-09-04T19:47:29.614Z,69.79
2022-09-04T19:53:19.942Z,69.81
2022-09-04T19:53:37.928Z,70.07
2022-09-04T19:56:21.928Z,70.18
2022-09-04T19:59:11.267Z,70.13
2022-09-04T20:01:47.766Z,70.05
2022-09-04T20:04:38.587Z,70.23
2022-09-04T20:07:31.303Z,70.23
2022-09-04T20:10:16.637Z,70.36
2022-09-04T20:12:51.379Z,70.38
2022-09-04T20:15:31.441Z,70.62
2022-09-04T20:18:12.507Z,70.66
2022-09-04T20:20:54.850Z,70.90
2022-09-04T20:23:39.052Z,70.77
2022-09-04T20:26:21.289Z,70.81
2022-09-04T20:29:09.504Z,70.93
2022-09-04T20:31:57.617Z,70.93
2022-09-04T20:34:41.126Z,71.10
2022-09-04T20:37:32.455Z,71.11
2022-09-04T20:40:11.353Z,71.32
2022-09-04T20:42:56.500Z,71.65
2022-09-04T20:50:00.615Z,71.77
2022-09-04T20:52:52.983Z,71.91
2022-09-04T20:52:59.186Z,71.94
2022-09-04T20:54:45.497Z,71.94
2022-09-04T20:59:35.936Z,71.84
2022-09-04T21:03:11.087Z,71.72
2022-09-04T21:03:35.183Z,71.62
2022-09-04T21:06:26.626Z,72.04
2022-09-04T21:09:07.618Z,72.27
2022-09-04T21:11:43.656Z,72.35
2022-09-04T21:14:21.753Z,72.50
2022-09-04T21:17:35.171Z,72.49
2022-09-04T21:20:27.094Z,72.56
2022-09-04T21:23:05.576Z,72.75
2022-09-04T21:25:50.281Z,72.70
2022-09-04T21:28:34.554Z,72.67
2022-09-04T21:31:21.022Z,72.77
2022-09-04T21:34:13.668Z,72.91
2022-09-04T21:36:54.839Z,72.86
2022-09-04T21:39:58.573Z,72.97
2022-09-04T21:43:05.659Z,72.95
2022-09-04T21:45:53.353Z,73.00
2022-09-04T21:48:40.919Z,73.09
2022-09-04T21:51:30.658Z,73.01
2022-09-04T21:55:42.532Z,72.97
2022-09-04T22:02:29.348Z,72.96
2022-09-04T22:02:37.438Z,73.01
2022-09-04T22:03:44.674Z,72.98
2022-09-04T22:06:49.452Z,72.81
2022-09-04T22:13:29.561Z,72.85
2022-09-04T22:13:39.417Z,72.83
2022-09-04T22:15:46.871Z,72.84
2022-09-04T22:18:41.554Z,72.76
2022-09-04T22:21:36.845Z,72.99
2022-09-04T22:24:27.675Z,73.17
2022-09-04T22:27:29.461Z,73.13
2022-09-04T22:30:15.180Z,73.17
2022-09-04T22:32:54.737Z,73.39
2022-09-04T22:36:13.306Z,73.54
2022-09-04T22:39:14.728Z,73.60
2022-09-04T22:42:06.931Z,73.50
2022-09-04T22:45:09.671Z,73.81
2022-09-04T22:47:49.299Z,74.01
2022-09-04T22:50:50.860Z,74.12
2022-09-04T22:53:40.331Z,74.15
2022-09-04T22:56:24.107Z,73.98
2022-09-04T22:59:26.930Z,73.97
2022-09-04T23:03:04.227Z,74.15
2022-09-04T23:06:08.810Z,74.33
2022-09-04T23:13:48.668Z,74.53
2022-09-04T23:13:56.569Z,74.55
2022-09-04T23:15:37.343Z,74.37
2022-09-04T23:19:19.111Z,74.34
2022-09-04T23:26:33.101Z,74.25
2022-09-04T23:26:53.586Z,74.24
2022-09-04T23:28:15.482Z,74.22
2022-09-04T23:31:13.294Z,74.25
2022-09-04T23:34:39.114Z,74.38
2022-09-04T23:37:47.599Z,74.80
2022-09-04T23:40:51.338Z,74.79
2022-09-04T23:44:06.461Z,74.88
2022-09-04T23:47:20.392Z,74.84
2022-09-04T23:50:33.555Z,74.83
2022-09-04T23:53:36.855Z,74.93
2022-09-04T23:56:32.318Z,74.93
2022-09-04T23:59:37.605Z,74.85
